createdAt,value
2024-02-15T00:02:52.723Z,54.26
2024-02-15T00:05:57.677Z,53.98
2024-02-15T00:09:00.067Z,54.40
2024-02-15T00:12:03.332Z,54.72
2024-02-15T00:15:06.140Z,54.68
2024-02-15T00:18:09.354Z,55.21
2024-02-15T00:21:12.529Z,54.90
2024-02-15T00:24:18.429Z,54.51
2024-02-15T00:27:22.519Z,54.56
2024-02-15T00:30:25.427Z,54.62
2024-02-15T00:33:27.867Z,54.28
2024-02-15T00:36:31.217Z,54.19
2024-02-15T00:39:33.669Z,54.64
2024-02-15T00:42:37.123Z,54.46
2024-02-15T00:45:41.356Z,54.93
2024-02-15T00:48:44.451Z,55.13
2024-02-15T00:51:46.923Z,54.94
2024-02-15T00:54:49.822Z,54.77
2024-02-15T00:57:52.132Z,54.69
2024-02-15T01:00:55.361Z,54.25
2024-02-15T01:03:57.840Z,54.14
2024-02-15T01:07:00.820Z,54.17
2024-02-15T01:10:05.287Z,53.79
2024-02-15T01:13:09.824Z,52.84
2024-02-15T01:16:12.233Z,53.74
2024-02-15T01:19:15.339Z,55.20
2024-02-15T01:22:17.821Z,55.59
2024-02-15T01:25:22.406Z,55.80
2024-02-15T01:28:24.830Z,56.03
2024-02-15T01:31:27.744Z,56.04
2024-02-15T01:34:30.214Z,55.90
2024-02-15T01:37:33.250Z,56.03
2024-02-15T01:40:36.394Z,55.62
2024-02-15T01:43:39.352Z,55.28
2024-02-15T01:46:41.811Z,55.14
2024-02-15T01:49:44.747Z,55.79
2024-02-15T01:52:48.687Z,56.41
2024-02-15T01:55:53.366Z,56.50
2024-02-15T01:58:56.024Z,56.45
2024-02-15T02:01:58.954Z,56.76
2024-02-15T02:05:02.152Z,56.38
2024-02-15T02:08:10.400Z,56.64
2024-02-15T02:11:13.734Z,57.04
2024-02-15T02:14:16.880Z,57.11
2024-02-15T02:17:21.282Z,56.68
2024-02-15T02:20:24.662Z,56.71
2024-02-15T02:23:30.266Z,56.75
2024-02-15T02:26:33.034Z,56.87
2024-02-15T02:29:35.704Z,56.62
2024-02-15T02:32:39.784Z,57.24
2024-02-15T02:35:42.611Z,57.75
2024-02-15T02:38:46.585Z,58.22
2024-02-15T02:41:49.333Z,58.01
2024-02-15T02:44:51.910Z,57.64
2024-02-15T02:47:55.105Z,58.23
2024-02-15T02:50:57.939Z,58.72
2024-02-15T02:54:00.732Z,58.99
2024-02-15T02:57:07.990Z,59.12
2024-02-15T03:00:18.908Z,59.17
2024-02-15T03:03:21.562Z,59.01
2024-02-15T03:06:26.182Z,58.71
2024-02-15T03:09:30.466Z,58.30
2024-02-15T03:12:33.591Z,58.18
2024-02-15T03:15:36.572Z,58.55
2024-02-15T03:18:39.962Z,57.83
2024-02-15T03:21:47.662Z,57.93
2024-02-15T03:24:50.304Z,58.20
2024-02-15T03:27:57.275Z,58.85
2024-02-15T03:31:01.774Z,59.09
2024-02-15T03:34:05.373Z,59.35
2024-02-15T03:37:08.251Z,59.35
2024-02-15T03:40:11.063Z,59.36
2024-02-15T03:43:14.159Z,59.41
2024-02-15T03:46:16.838Z,59.37
2024-02-15T03:49:19.572Z,59.47
2024-02-15T03:52:23.127Z,59.54
2024-02-15T03:55:26.563Z,59.66
2024-02-15T03:58:29.423Z,59.73
2024-02-15T04:01:35.367Z,59.69
2024-02-15T04:04:38.305Z,59.81
2024-02-15T04:07:40.988Z,59.80
2024-02-15T04:10:44.146Z,59.85
2024-02-15T04:13:46.592Z,59.90
2024-02-15T04:16:49.565Z,59.97
2024-02-15T04:19:52.678Z,59.94
2024-02-15T04:22:55.836Z,59.80
2024-02-15T04:25:59.039Z,59.69
2024-02-15T04:29:01.994Z,59.78
2024-02-15T04:32:05.018Z,59.82
2024-02-15T04:35:09.616Z,59.74
2024-02-15T04:38:13.459Z,59.98
2024-02-15T04:41:16.334Z,60.20
2024-02-15T04:44:21.321Z,60.34
2024-02-15T04:47:24.550Z,59.57
2024-02-15T04:50:27.520Z,59.52
2024-02-15T04:53:31.786Z,60.23
2024-02-15T04:56:34.547Z,60.81
2024-02-15T04:59:38.757Z,61.00
2024-02-15T05:02:42.138Z,61.12
2024-02-15T05:05:45.863Z,60.52
2024-02-15T05:08:48.583Z,60.19
2024-02-15T05:11:51.582Z,60.47
2024-02-15T05:14:54.914Z,60.48
2024-02-15T05:17:58.187Z,60.42
2024-02-15T05:21:02.468Z,60.37
2024-02-15T05:24:06.354Z,60.91
2024-02-15T05:27:09.737Z,60.86
2024-02-15T05:30:13.706Z,60.80
2024-02-15T05:33:16.216Z,60.92
2024-02-15T05:36:22.819Z,60.71
2024-02-15T05:39:26.380Z,61.27
2024-02-15T05:42:29.224Z,61.10
2024-02-15T05:45:34.744Z,61.07
2024-02-15T05:48:40.749Z,61.21
2024-02-15T05:51:45.302Z,61.44
2024-02-15T05:54:48.718Z,61.40
2024-02-15T05:57:51.003Z,61.16
2024-02-15T06:00:55.796Z,61.20
2024-02-15T06:03:58.852Z,61.55
2024-02-15T06:07:02.052Z,61.39
2024-02-15T06:10:05.431Z,61.53
2024-02-15T06:13:10.632Z,61.58
2024-02-15T06:16:13.396Z,61.54
2024-02-15T06:19:16.574Z,61.52
2024-02-15T06:22:19.416Z,61.47
2024-02-15T06:25:23.397Z,61.41
2024-02-15T06:28:45.342Z,61.47
2024-02-15T06:32:06.444Z,61.31
2024-02-15T06:35:27.861Z,61.27
2024-02-15T06:38:49.448Z,61.13
2024-02-15T06:41:52.712Z,61.24
2024-02-15T06:44:55.455Z,61.07
2024-02-15T06:47:58.966Z,61.32
2024-02-15T06:51:01.773Z,61.18
2024-02-15T06:54:04.753Z,61.00
2024-02-15T06:57:08.222Z,60.74
2024-02-15T07:00:15.932Z,60.73
2024-02-15T07:03:18.814Z,60.71
2024-02-15T07:06:22.953Z,60.78
2024-02-15T07:09:25.872Z,60.62
2024-02-15T07:12:28.766Z,61.16
2024-02-15T07:15:34.274Z,60.98
2024-02-15T07:18:37.547Z,60.37
2024-02-15T07:21:40.558Z,60.23
2024-02-15T07:24:43.263Z,60.39
2024-02-15T07:27:45.993Z,60.28
2024-02-15T07:30:52.830Z,60.27
2024-02-15T07:33:55.800Z,60.15
2024-02-15T07:37:01.600Z,59.50
2024-02-15T07:40:09.392Z,59.48
2024-02-15T07:43:12.114Z,59.84
2024-02-15T07:46:15.469Z,59.25
2024-02-15T07:49:21.248Z,59.19
2024-02-15T07:52:24.046Z,59.08
2024-02-15T07:55:26.702Z,58.83
2024-02-15T07:58:29.391Z,58.35
2024-02-15T08:01:32.719Z,57.90
2024-02-15T08:04:41.672Z,57.92
2024-02-15T08:07:48.673Z,58.30
2024-02-15T08:10:52.772Z,57.99
2024-02-15T08:13:55.923Z,57.62
2024-02-15T08:16:58.981Z,57.92
2024-02-15T08:20:01.465Z,58.10
2024-02-15T08:23:05.444Z,58.32
2024-02-15T08:26:07.889Z,57.87
2024-02-15T08:29:10.933Z,57.26
2024-02-15T08:32:13.336Z,56.60
2024-02-15T08:35:16.962Z,56.60
2024-02-15T08:38:20.027Z,56.75
2024-02-15T08:41:27.798Z,56.69
2024-02-15T08:44:30.495Z,56.46
2024-02-15T08:47:33.545Z,56.57
2024-02-15T08:50:35.968Z,56.83
2024-02-15T08:53:39.247Z,56.28
2024-02-15T08:56:41.779Z,55.74
2024-02-15T08:59:44.802Z,55.92
2024-02-15T09:02:48.005Z,56.24
2024-02-15T09:05:51.220Z,55.91
2024-02-15T09:08:53.805Z,54.87
2024-02-15T09:11:56.879Z,54.74
2024-02-15T09:14:59.501Z,54.07
2024-02-15T09:18:02.645Z,53.88
2024-02-15T09:21:06.414Z,53.49
2024-02-15T09:24:09.510Z,53.95
2024-02-15T09:27:13.324Z,53.03
2024-02-15T09:30:17.350Z,52.24
2024-02-15T09:33:22.915Z,52.17
2024-02-15T09:36:25.937Z,52.17
2024-02-15T09:39:29.062Z,52.42
2024-02-15T09:42:32.031Z,52.92
2024-02-15T09:45:36.239Z,53.28
2024-02-15T09:48:41.669Z,52.95
2024-02-15T09:51:45.018Z,53.10
2024-02-15T09:54:48.297Z,51.92
2024-02-15T09:57:51.147Z,51.63
2024-02-15T10:00:54.245Z,52.14
2024-02-15T10:03:58.583Z,51.68
2024-02-15T10:07:01.278Z,51.07
2024-02-15T10:10:21.016Z,50.93
2024-02-15T10:13:24.688Z,50.58
2024-02-15T10:16:27.890Z,50.08
2024-02-15T10:19:36.045Z,50.12
2024-02-15T10:22:38.901Z,49.52
2024-02-15T10:25:42.364Z,49.51
2024-02-15T10:28:45.134Z,49.07
2024-02-15T10:31:55.172Z,48.92
2024-02-15T10:34:58.074Z,48.69
2024-02-15T10:38:10.982Z,48.38
2024-02-15T10:41:14.121Z,48.22
2024-02-15T10:44:24.349Z,47.77
2024-02-15T10:47:27.265Z,47.07
2024-02-15T10:50:29.928Z,46.65
2024-02-15T10:53:34.519Z,46.48
2024-02-15T10:56:38.984Z,46.27
2024-02-15T10:59:50.261Z,46.23
2024-02-15T11:03:03.436Z,46.02
2024-02-15T11:06:07.923Z,45.86
2024-02-15T11:09:12.520Z,46.32
2024-02-15T11:12:17.296Z,45.51
2024-02-15T11:15:40.875Z,45.09
2024-02-15T11:18:50.446Z,44.91
2024-02-15T11:22:05.705Z,44.98
2024-02-15T11:25:12.996Z,45.13
2024-02-15T11:28:21.739Z,44.54
2024-02-15T11:31:43.340Z,44.83
2024-02-15T11:34:49.745Z,45.16
2024-02-15T11:37:59.216Z,45.12
2024-02-15T11:41:03.002Z,44.41
2024-02-15T11:44:06.938Z,44.47
2024-02-15T11:47:11.661Z,44.30
2024-02-15T11:50:16.079Z,43.79
2024-02-15T11:53:19.604Z,43.17
2024-02-15T11:56:23.039Z,43.50
2024-02-15T11:59:33.938Z,43.05
2024-02-15T12:02:55.210Z,42.56
2024-02-15T12:06:17.012Z,41.82
2024-02-15T12:09:39.615Z,41.99
2024-02-15T12:13:10.110Z,42.03
2024-02-15T12:16:35.523Z,41.71
2024-02-15T12:19:38.710Z,41.76
2024-02-15T12:22:45.863Z,42.10
2024-02-15T12:25:52.887Z,42.71
2024-02-15T12:28:59.475Z,42.67
2024-02-15T12:32:02.431Z,42.72
2024-02-15T12:35:16.970Z,42.64
2024-02-15T12:38:20.145Z,42.21
2024-02-15T12:41:22.559Z,42.07
2024-02-15T12:44:28.343Z,42.52
2024-02-15T12:47:31.888Z,42.75
2024-02-15T12:50:35.490Z,43.39
2024-02-15T12:53:37.872Z,43.54
2024-02-15T12:56:41.055Z,43.06
2024-02-15T12:59:43.797Z,43.50
2024-02-15T13:02:48.677Z,42.92
2024-02-15T13:05:52.188Z,42.81
2024-02-15T13:08:55.167Z,43.25
2024-02-15T13:11:59.704Z,42.88
2024-02-15T13:15:04.715Z,42.71
2024-02-15T13:18:14.142Z,43.08
2024-02-15T13:21:18.512Z,43.59
2024-02-15T13:24:22.157Z,43.55
2024-02-15T13:27:25.485Z,44.07
2024-02-15T13:30:31.491Z,44.21
2024-02-15T13:33:34.804Z,44.31
2024-02-15T13:36:37.763Z,44.27
2024-02-15T13:39:44.278Z,44.16
2024-02-15T13:43:00.136Z,44.16
2024-02-15T13:46:03.424Z,43.82
2024-02-15T13:49:07.315Z,44.15
2024-02-15T13:52:13.042Z,43.80
2024-02-15T13:55:16.839Z,44.18
2024-02-15T13:58:20.031Z,44.45
2024-02-15T14:01:22.510Z,45.02
2024-02-15T14:04:28.335Z,45.25
2024-02-15T14:07:30.806Z,44.91
2024-02-15T14:10:36.176Z,45.05
2024-02-15T14:13:38.780Z,45.64
2024-02-15T14:16:41.802Z,45.96
2024-02-15T14:19:44.687Z,45.87
2024-02-15T14:22:51.062Z,46.15
2024-02-15T14:25:54.337Z,46.17
2024-02-15T14:28:57.261Z,46.24
2024-02-15T14:32:18.428Z,46.09
2024-02-15T14:35:21.653Z,46.12
2024-02-15T14:38:25.456Z,46.21
2024-02-15T14:41:33.771Z,45.98
2024-02-15T14:44:37.731Z,46.19
2024-02-15T14:47:40.792Z,46.71
2024-02-15T14:50:43.819Z,46.82
2024-02-15T14:53:46.832Z,47.13
2024-02-15T14:56:49.511Z,47.41
2024-02-15T14:59:52.663Z,47.40
2024-02-15T15:02:57.782Z,47.77
2024-02-15T15:06:19.404Z,48.02
2024-02-15T15:09:40.517Z,48.49
2024-02-15T15:12:46.745Z,48.67
2024-02-15T15:15:49.565Z,49.11
2024-02-15T15:18:55.152Z,49.15
2024-02-15T15:21:57.645Z,49.56
2024-02-15T15:25:00.588Z,49.72
2024-02-15T15:28:03.197Z,49.73
2024-02-15T15:31:08.210Z,49.48
2024-02-15T15:34:10.958Z,49.60
2024-02-15T15:37:14.721Z,50.11
2024-02-15T15:40:17.813Z,50.21
2024-02-15T15:43:21.049Z,50.26
2024-02-15T15:46:23.428Z,50.56
2024-02-15T15:49:26.868Z,50.77
2024-02-15T15:52:29.330Z,51.03
2024-02-15T15:55:32.592Z,51.39
2024-02-15T15:58:35.332Z,51.49
2024-02-15T16:01:49.074Z,51.74
2024-02-15T16:04:59.797Z,52.26
2024-02-15T16:08:05.963Z,52.22
2024-02-15T16:11:09.043Z,52.24
2024-02-15T16:14:14.367Z,52.50
2024-02-15T16:17:17.232Z,52.66
2024-02-15T16:20:19.980Z,52.81
2024-02-15T16:23:23.780Z,53.05
2024-02-15T16:26:27.506Z,53.30
2024-02-15T16:29:30.521Z,53.45
2024-02-15T16:32:33.296Z,53.89
2024-02-15T16:35:37.531Z,53.79
2024-02-15T16:38:42.087Z,54.06
2024-02-15T16:41:49.069Z,54.06
2024-02-15T16:44:53.658Z,54.04
2024-02-15T16:48:02.218Z,54.07
2024-02-15T16:51:07.967Z,54.16
2024-02-15T16:54:11.121Z,54.24
2024-02-15T16:57:15.929Z,54.52
2024-02-15T17:00:19.639Z,54.73
2024-02-15T17:03:22.538Z,54.67
2024-02-15T17:06:25.564Z,54.88
2024-02-15T17:09:28.465Z,54.94
2024-02-15T17:12:31.152Z,55.28
2024-02-15T17:15:35.631Z,55.61
2024-02-15T17:18:41.518Z,55.88
2024-02-15T17:21:44.344Z,56.44
2024-02-15T17:24:47.088Z,56.61
2024-02-15T17:27:51.526Z,56.40
2024-02-15T17:30:54.282Z,56.54
2024-02-15T17:33:57.913Z,56.77
2024-02-15T17:37:00.833Z,57.14
2024-02-15T17:40:04.369Z,57.06
2024-02-15T17:43:08.928Z,57.26
2024-02-15T17:46:12.096Z,57.35
2024-02-15T17:49:14.832Z,57.53
2024-02-15T17:52:19.881Z,57.31
2024-02-15T17:55:24.018Z,57.49
2024-02-15T17:58:28.467Z,57.40
2024-02-15T18:01:38.794Z,57.54
2024-02-15T18:04:41.888Z,57.77
2024-02-15T18:07:44.708Z,58.00
2024-02-15T18:10:47.974Z,58.31
2024-02-15T18:13:50.431Z,58.44
2024-02-15T18:16:53.721Z,58.15
2024-02-15T18:19:58.258Z,58.34
2024-02-15T18:23:01.985Z,58.46
2024-02-15T18:26:04.535Z,58.37
2024-02-15T18:29:07.627Z,58.04
2024-02-15T18:32:10.021Z,58.27
2024-02-15T18:35:13.535Z,57.97
2024-02-15T18:38:16.896Z,58.10
2024-02-15T18:41:19.929Z,58.17
2024-02-15T18:44:22.324Z,58.34
2024-02-15T18:47:25.253Z,58.20
2024-02-15T18:50:28.029Z,58.20
2024-02-15T18:53:31.080Z,58.37
2024-02-15T18:56:33.575Z,58.28
2024-02-15T18:59:36.667Z,58.33
2024-02-15T19:02:39.173Z,58.32
2024-02-15T19:05:45.441Z,58.23
2024-02-15T19:08:48.450Z,58.33
2024-02-15T19:11:53.594Z,58.41
2024-02-15T19:14:59.502Z,58.56
2024-02-15T19:18:06.447Z,58.71
2024-02-15T19:21:10.792Z,58.80
2024-02-15T19:24:14.258Z,58.82
2024-02-15T19:27:16.941Z,58.86
2024-02-15T19:30:20.813Z,59.00
2024-02-15T19:33:24.690Z,59.25
2024-02-15T19:36:27.747Z,59.40
2024-02-15T19:39:32.672Z,59.55
2024-02-15T19:42:35.616Z,59.61
2024-02-15T19:45:42.789Z,59.51
2024-02-15T19:48:50.703Z,59.53
2024-02-15T19:51:53.455Z,59.50
2024-02-15T19:54:58.114Z,59.53
2024-02-15T19:58:00.476Z,59.73
2024-02-15T20:01:03.836Z,59.65
2024-02-15T20:04:07.961Z,59.77
2024-02-15T20:07:12.614Z,60.00
2024-02-15T20:10:15.699Z,60.04
2024-02-15T20:13:19.305Z,60.01
2024-02-15T20:16:23.378Z,60.00
2024-02-15T20:19:29.230Z,59.88
2024-02-15T20:22:31.927Z,59.86
2024-02-15T20:25:34.600Z,59.87
2024-02-15T20:28:38.212Z,59.87
2024-02-15T20:31:43.992Z,59.86
2024-02-15T20:34:49.719Z,59.94
2024-02-15T20:37:52.782Z,59.88
2024-02-15T20:41:02.523Z,60.13
2024-02-15T20:44:05.444Z,60.13
2024-02-15T20:47:13.073Z,59.97
2024-02-15T20:50:18.422Z,59.90
2024-02-15T20:53:21.311Z,60.04
2024-02-15T20:56:24.113Z,60.15
2024-02-15T20:59:28.277Z,60.19
2024-02-15T21:02:32.773Z,60.16
2024-02-15T21:05:35.904Z,60.20
2024-02-15T21:08:38.713Z,60.11
2024-02-15T21:11:41.451Z,60.08
2024-02-15T21:14:44.185Z,60.06
2024-02-15T21:17:47.184Z,60.20
2024-02-15T21:20:50.424Z,60.25
2024-02-15T21:23:54.623Z,60.43
2024-02-15T21:26:59.968Z,60.34
2024-02-15T21:30:05.726Z,60.80
2024-02-15T21:33:08.870Z,60.80
2024-02-15T21:36:12.474Z,60.14
2024-02-15T21:39:15.329Z,60.17
2024-02-15T21:42:18.114Z,60.35
2024-02-15T21:45:21.177Z,60.53
2024-02-15T21:48:24.162Z,60.24
2024-02-15T21:51:27.212Z,60.33
2024-02-15T21:54:30.129Z,60.62
2024-02-15T21:57:33.831Z,60.55
2024-02-15T22:00:38.323Z,60.55
2024-02-15T22:03:46.233Z,60.66
2024-02-15T22:06:51.345Z,60.74
2024-02-15T22:09:57.724Z,60.59
2024-02-15T22:13:07.838Z,60.46
2024-02-15T22:16:22.797Z,60.44
2024-02-15T22:19:25.352Z,60.45
2024-02-15T22:22:28.408Z,60.42
2024-02-15T22:25:34.048Z,60.49
2024-02-15T22:28:37.086Z,60.43
2024-02-15T22:31:39.590Z,60.39
2024-02-15T22:34:42.777Z,60.25
2024-02-15T22:37:45.288Z,60.17
2024-02-15T22:40:48.264Z,60.13
2024-02-15T22:43:51.318Z,59.84
2024-02-15T22:46:55.008Z,60.04
2024-02-15T22:49:58.315Z,59.99
2024-02-15T22:53:02.966Z,59.93
2024-02-15T22:56:05.435Z,59.80
2024-02-15T22:59:08.688Z,59.75
2024-02-15T23:02:11.120Z,59.66
2024-02-15T23:05:14.231Z,59.68
2024-02-15T23:08:16.798Z,59.49
2024-02-15T23:11:19.997Z,59.56
2024-02-15T23:14:24.386Z,59.48
2024-02-15T23:17:29.341Z,59.32
2024-02-15T23:20:31.783Z,59.40
2024-02-15T23:23:35.580Z,59.46
2024-02-15T23:26:37.925Z,59.57
2024-02-15T23:29:41.610Z,59.42
2024-02-15T23:32:44.059Z,59.18
2024-02-15T23:36:05.955Z,59.02
2024-02-15T23:39:37.161Z,59.13
2024-02-15T23:42:40.312Z,59.19
2024-02-15T23:45:42.881Z,59.17
2024-02-15T23:48:46.169Z,59.32
2024-02-15T23:51:50.237Z,59.24
2024-02-15T23:54:53.214Z,58.95
2024-02-15T23:57:58.779Z,58.84
